Time;durP1;ratioP1;P1;durP2;ratioP2;P2;SDS_P1;SDS_P2;PMS_P1;PMS_P2;Temp;Humidity;BMP_temperature;BMP_pressure;BME280_temperature;BME280_humidity;BME280_pressure;Samples;Min_cycle;Max_cycle;Signal;HPM_P1;HPM_P2
2023/07/09 00:01:11;;;;;;;10.40;9.40;;;;;;;;;;5079040;28;20462;-65
2023/07/09 00:03:39;;;;;;;12.13;9.50;;;;;;;;;;5078458;28;20475;-65
2023/07/09 00:06:08;;;;;;;10.77;8.67;;;;;;;;;;5057959;28;20579;-65
2023/07/09 00:08:34;;;;;;;12.00;7.40;;;;;;;;;;5057114;28;20480;-65
2023/07/09 00:11:01;;;;;;;10.43;8.07;;;;;;;;;;5059031;28;20495;-66
2023/07/09 00:13:28;;;;;;;14.43;9.00;;;;;;;;;;5058827;28;20463;-65
2023/07/09 00:15:55;;;;;;;9.90;8.90;;;;;;;;;;5057667;28;20512;-66
2023/07/09 00:18:22;;;;;;;8.83;7.87;;;;;;;;;;5058374;28;20520;-66
2023/07/09 00:20:50;;;;;;;10.40;8.80;;;;;;;;;;5058620;28;20460;-66
2023/07/09 00:23:20;;;;;;;10.70;8.47;;;;;;;;;;5058322;28;20515;-65
2023/07/09 00:25:47;;;;;;;11.17;8.90;;;;;;;;;;5058820;28;20499;-65
2023/07/09 00:28:14;;;;;;;10.07;9.07;;;;;;;;;;5058654;28;20528;-66
2023/07/09 00:30:41;;;;;;;10.10;8.30;;;;;;;;;;5058926;28;20455;-65
2023/07/09 00:33:10;;;;;;;9.20;7.67;;;;;;;;;;5058092;28;20520;-65
2023/07/09 00:35:39;;;;;;;9.83;8.07;;;;;;;;;;5054902;28;20508;-65
2023/07/09 00:38:08;;;;;;;9.23;8.30;;;;;;;;;;5053020;28;20456;-65
2023/07/09 00:40:34;;;;;;;10.93;9.17;;;;;;;;;;5058331;28;20504;-66
2023/07/09 00:43:01;;;;;;;10.07;9.07;;;;;;;;;;5058445;28;20544;-65
2023/07/09 00:45:27;;;;;;;13.60;8.30;;;;;;;;;;5058432;28;20519;-64
2023/07/09 00:47:55;;;;;;;10.03;8.93;;;;;;;;;;5058642;28;20472;-64
2023/07/09 00:50:33;;;;;;;11.53;8.93;;;;;;;;;;5058686;28;20508;-64
2023/07/09 00:53:02;;;;;;;15.80;8.80;;;;;;;;;;5057854;28;20467;-65
2023/07/09 00:55:32;;;;;;;8.90;8.00;;;;;;;;;;5058737;28;20477;-64
2023/07/09 00:58:00;;;;;;;9.53;7.93;;;;;;;;;;5056369;28;20953;-64
2023/07/09 01:00:35;;;;;;;13.13;8.50;;;;;;;;;;5056219;28;20561;-64
2023/07/09 01:03:03;;;;;;;10.43;8.60;;;;;;;;;;5052342;28;20470;-64
2023/07/09 01:05:29;;;;;;;9.57;8.57;;;;;;;;;;5059852;28;20504;-66
2023/07/09 01:07:58;;;;;;;9.90;8.60;;;;;;;;;;5076144;28;20461;-65
2023/07/09 01:10:24;;;;;;;10.07;9.03;;;;;;;;;;5076845;28;20463;-64
2023/07/09 01:12:52;;;;;;;9.70;8.70;;;;;;;;;;5078017;28;21101;-65
2023/07/09 01:15:19;;;;;;;10.90;9.33;;;;;;;;;;5078700;28;20476;-65
2023/07/09 01:17:46;;;;;;;11.17;8.67;;;;;;;;;;5078211;28;20482;-65
2023/07/09 01:20:16;;;;;;;9.90;8.90;;;;;;;;;;5069117;28;20479;-65
2023/07/09 01:22:44;;;;;;;10.17;9.00;;;;;;;;;;5077926;28;21014;-66
2023/07/09 01:25:11;;;;;;;10.53;9.10;;;;;;;;;;5077680;28;20495;-66
2023/07/09 01:27:38;;;;;;;9.50;8.50;;;;;;;;;;5077967;28;20467;-66
2023/07/09 01:30:07;;;;;;;11.70;9.03;;;;;;;;;;5080080;28;20545;-64
2023/07/09 01:32:34;;;;;;;11.30;9.50;;;;;;;;;;5074880;28;20512;-66
2023/07/09 01:35:04;;;;;;;9.97;8.97;;;;;;;;;;5081675;28;20480;-66
2023/07/09 01:37:31;;;;;;;10.27;8.90;;;;;;;;;;5082032;28;20514;-67
2023/07/09 01:39:59;;;;;;;9.50;8.60;;;;;;;;;;5080927;28;20534;-66
2023/07/09 01:42:26;;;;;;;10.47;9.47;;;;;;;;;;5082015;28;20507;-65
2023/07/09 01:44:54;;;;;;;12.80;10.20;;;;;;;;;;5082167;28;20471;-65
2023/07/09 01:47:22;;;;;;;13.23;9.00;;;;;;;;;;5082073;28;20439;-66
2023/07/09 01:49:48;;;;;;;10.00;9.00;;;;;;;;;;5081588;28;20448;-65
2023/07/09 01:52:16;;;;;;;10.70;9.60;;;;;;;;;;5079499;28;21007;-65
2023/07/09 01:54:49;;;;;;;10.47;9.43;;;;;;;;;;5071511;28;20948;-65
2023/07/09 01:57:22;;;;;;;10.50;9.10;;;;;;;;;;5081238;28;20979;-65
2023/07/09 01:59:49;;;;;;;9.50;8.50;;;;;;;;;;5081722;28;20448;-65
2023/07/09 02:02:18;;;;;;;13.33;8.93;;;;;;;;;;5081693;28;20527;-65
2023/07/09 02:04:45;;;;;;;11.00;8.60;;;;;;;;;;5080061;28;20458;-65
2023/07/09 02:07:11;;;;;;;10.20;9.17;;;;;;;;;;5078760;28;21075;-65
2023/07/09 02:09:37;;;;;;;9.90;8.90;;;;;;;;;;5079908;28;20878;-66
2023/07/09 02:12:04;;;;;;;12.07;10.43;;;;;;;;;;5079054;28;20489;-65
2023/07/09 02:14:32;;;;;;;10.87;8.50;;;;;;;;;;5080454;28;21028;-66
2023/07/09 02:16:59;;;;;;;9.00;8.20;;;;;;;;;;5079001;28;20541;-65
2023/07/09 02:19:25;;;;;;;9.70;8.80;;;;;;;;;;5066009;28;20850;-65
2023/07/09 02:21:51;;;;;;;12.10;8.57;;;;;;;;;;5079380;28;20503;-65
2023/07/09 02:24:18;;;;;;;10.10;9.00;;;;;;;;;;5079251;28;20563;-65
2023/07/09 02:26:44;;;;;;;14.37;8.90;;;;;;;;;;5078964;28;20509;-64
2023/07/09 02:29:11;;;;;;;10.43;8.70;;;;;;;;;;5073917;28;20499;-64
2023/07/09 02:31:40;;;;;;;10.60;9.40;;;;;;;;;;5075983;28;21046;-65
2023/07/09 02:34:07;;;;;;;9.90;8.80;;;;;;;;;;5079026;28;20455;-66
2023/07/09 02:36:33;;;;;;;9.70;8.80;;;;;;;;;;5079675;28;21027;-66
2023/07/09 02:39:00;;;;;;;10.23;9.07;;;;;;;;;;5080075;28;20463;-66
2023/07/09 02:41:26;;;;;;;9.40;8.50;;;;;;;;;;5075287;28;20945;-66
2023/07/09 02:43:52;;;;;;;10.53;8.60;;;;;;;;;;5073317;28;20730;-64
2023/07/09 02:46:19;;;;;;;12.23;8.50;;;;;;;;;;5075515;28;20444;-65
2023/07/09 02:48:46;;;;;;;8.13;7.33;;;;;;;;;;5073360;28;20908;-64
2023/07/09 02:51:13;;;;;;;9.13;8.23;;;;;;;;;;5075775;28;20535;-66
2023/07/09 02:53:39;;;;;;;10.17;8.17;;;;;;;;;;5077441;28;20460;-66
2023/07/09 02:56:06;;;;;;;9.70;8.70;;;;;;;;;;5079629;28;20570;-65
2023/07/09 02:58:32;;;;;;;11.80;9.17;;;;;;;;;;5077413;28;20459;-65
2023/07/09 03:00:59;;;;;;;9.10;7.63;;;;;;;;;;5073544;28;20489;-66
2023/07/09 03:03:25;;;;;;;12.03;8.97;;;;;;;;;;5071807;28;20867;-65
2023/07/09 03:05:53;;;;;;;12.10;8.90;;;;;;;;;;5069951;28;20534;-66
2023/07/09 03:08:19;;;;;;;9.47;8.40;;;;;;;;;;5073902;28;20491;-65
2023/07/09 03:10:45;;;;;;;11.63;8.70;;;;;;;;;;5069897;28;20473;-64
2023/07/09 03:13:12;;;;;;;11.67;9.63;;;;;;;;;;5077171;28;20491;-65
2023/07/09 03:15:38;;;;;;;9.40;7.83;;;;;;;;;;5073213;28;20483;-65
2023/07/09 03:18:05;;;;;;;10.73;8.63;;;;;;;;;;5069315;28;20995;-65
2023/07/09 03:20:31;;;;;;;8.60;7.80;;;;;;;;;;5071500;28;20528;-65
2023/07/09 03:22:59;;;;;;;11.67;8.87;;;;;;;;;;5063876;28;20517;-66
2023/07/09 03:25:25;;;;;;;8.83;7.93;;;;;;;;;;5073978;28;20494;-66
2023/07/09 03:27:51;;;;;;;9.13;7.97;;;;;;;;;;5079212;28;20514;-65
2023/07/09 03:30:18;;;;;;;9.17;8.17;;;;;;;;;;5070466;28;20476;-66
2023/07/09 03:32:45;;;;;;;9.47;7.97;;;;;;;;;;5079610;28;20470;-66
2023/07/09 03:35:11;;;;;;;9.40;8.30;;;;;;;;;;5079104;28;20479;-66
2023/07/09 03:37:38;;;;;;;9.27;7.03;;;;;;;;;;5070045;28;20513;-66
2023/07/09 03:40:07;;;;;;;8.13;7.27;;;;;;;;;;5072041;28;20456;-66
2023/07/09 03:42:34;;;;;;;8.90;7.43;;;;;;;;;;5075342;28;20449;-66
2023/07/09 03:45:00;;;;;;;10.77;7.77;;;;;;;;;;5067185;28;20528;-66
2023/07/09 03:47:26;;;;;;;9.23;8.30;;;;;;;;;;5064219;28;20485;-66
2023/07/09 03:49:53;;;;;;;9.80;8.80;;;;;;;;;;5067151;28;20457;-65
2023/07/09 03:52:19;;;;;;;8.50;7.20;;;;;;;;;;5066380;28;20472;-65
2023/07/09 03:54:45;;;;;;;10.03;7.77;;;;;;;;;;5078184;28;20943;-65
2023/07/09 03:57:13;;;;;;;9.90;7.83;;;;;;;;;;5083361;28;20456;-65
2023/07/09 03:59:40;;;;;;;9.30;7.93;;;;;;;;;;5070904;28;20459;-65
2023/07/09 04:02:07;;;;;;;8.27;7.37;;;;;;;;;;5076058;28;21772;-65
2023/07/09 04:04:33;;;;;;;9.07;8.07;;;;;;;;;;5077297;28;20483;-64
2023/07/09 04:06:59;;;;;;;8.67;7.60;;;;;;;;;;5077584;28;20658;-65
2023/07/09 04:09:26;;;;;;;8.77;7.97;;;;;;;;;;5077466;28;20480;-64
2023/07/09 04:11:52;;;;;;;8.60;7.70;;;;;;;;;;5076288;28;20489;-64
2023/07/09 04:14:20;;;;;;;8.47;7.17;;;;;;;;;;5070056;28;20678;-65
2023/07/09 04:16:46;;;;;;;7.60;6.90;;;;;;;;;;5069397;28;20563;-65
2023/07/09 04:19:12;;;;;;;8.77;7.80;;;;;;;;;;5078264;28;20494;-64
2023/07/09 04:21:39;;;;;;;8.23;7.53;;;;;;;;;;5073636;28;20521;-65
2023/07/09 04:24:06;;;;;;;9.03;7.30;;;;;;;;;;5068173;28;20499;-65
2023/07/09 04:26:32;;;;;;;7.87;7.17;;;;;;;;;;5074396;28;20640;-65
2023/07/09 04:28:59;;;;;;;8.40;7.60;;;;;;;;;;5079226;28;20452;-65
2023/07/09 04:31:26;;;;;;;9.07;8.20;;;;;;;;;;5072337;28;20479;-65
2023/07/09 04:33:53;;;;;;;9.00;8.07;;;;;;;;;;5074982;28;20575;-66
2023/07/09 04:36:19;;;;;;;9.27;7.67;;;;;;;;;;5073458;28;20480;-65
2023/07/09 04:38:48;;;;;;;9.97;8.10;;;;;;;;;;5071544;28;21052;-65
2023/07/09 04:41:14;;;;;;;8.87;8.07;;;;;;;;;;5069934;28;20460;-65
2023/07/09 04:43:41;;;;;;;9.33;7.10;;;;;;;;;;5073502;28;20520;-66
2023/07/09 04:46:07;;;;;;;8.47;7.60;;;;;;;;;;5073981;28;20476;-66
2023/07/09 04:48:35;;;;;;;8.13;7.33;;;;;;;;;;5077717;28;20475;-66
2023/07/09 04:51:01;;;;;;;8.40;7.60;;;;;;;;;;5072089;28;20468;-66
2023/07/09 04:53:28;;;;;;;12.37;7.90;;;;;;;;;;5077978;28;21004;-65
2023/07/09 04:55:55;;;;;;;10.23;8.90;;;;;;;;;;5070829;28;20502;-65
2023/07/09 04:58:21;;;;;;;9.70;7.67;;;;;;;;;;5085604;28;20636;-65
2023/07/09 05:00:50;;;;;;;9.80;8.90;;;;;;;;;;5076271;28;20551;-65
2023/07/09 05:03:16;;;;;;;8.47;7.60;;;;;;;;;;5076594;28;20452;-64
2023/07/09 05:05:45;;;;;;;9.70;7.70;;;;;;;;;;5065498;28;20518;-65
2023/07/09 05:08:11;;;;;;;9.90;7.90;;;;;;;;;;5075905;28;20502;-65
2023/07/09 05:10:41;;;;;;;9.57;7.87;;;;;;;;;;5078468;28;20826;-65
2023/07/09 05:13:07;;;;;;;11.63;7.60;;;;;;;;;;5078518;28;20475;-65
2023/07/09 05:15:34;;;;;;;9.07;8.17;;;;;;;;;;5079012;28;20498;-66
2023/07/09 05:18:00;;;;;;;9.00;7.90;;;;;;;;;;5078770;28;20995;-66
2023/07/09 05:20:27;;;;;;;8.97;6.87;;;;;;;;;;5079036;28;20467;-66
2023/07/09 05:22:54;;;;;;;8.80;7.20;;;;;;;;;;5078772;28;20487;-65
2023/07/09 05:25:21;;;;;;;8.00;7.20;;;;;;;;;;5074856;28;20479;-66
2023/07/09 05:27:47;;;;;;;8.57;7.77;;;;;;;;;;5072923;28;20535;-66
2023/07/09 05:30:13;;;;;;;8.30;7.50;;;;;;;;;;5076992;28;20502;-66
2023/07/09 05:32:40;;;;;;;8.30;7.00;;;;;;;;;;5078484;28;20515;-66
2023/07/09 05:35:07;;;;;;;8.47;7.53;;;;;;;;;;5076510;28;20524;-66
2023/07/09 05:37:33;;;;;;;7.33;6.63;;;;;;;;;;5076190;28;20482;-66
2023/07/09 05:40:01;;;;;;;8.60;6.97;;;;;;;;;;5073696;28;20495;-66
2023/07/09 05:42:27;;;;;;;11.53;8.20;;;;;;;;;;5076745;28;20471;-66
2023/07/09 05:44:54;;;;;;;8.90;8.03;;;;;;;;;;5079136;28;20463;-65
2023/07/09 05:47:20;;;;;;;8.83;7.93;;;;;;;;;;5076068;28;20464;-65
2023/07/09 05:49:50;;;;;;;8.47;7.50;;;;;;;;;;5076132;28;20535;-65
2023/07/09 05:52:16;;;;;;;8.97;7.87;;;;;;;;;;5075739;28;20708;-65
2023/07/09 05:54:43;;;;;;;11.30;7.83;;;;;;;;;;5075156;28;20471;-66
2023/07/09 05:57:11;;;;;;;8.37;7.23;;;;;;;;;;5077741;28;20590;-66
2023/07/09 05:59:37;;;;;;;8.03;7.13;;;;;;;;;;5074789;28;20515;-65
2023/07/09 06:02:04;;;;;;;9.30;8.40;;;;;;;;;;5076949;28;20484;-66
2023/07/09 06:04:30;;;;;;;9.80;7.73;;;;;;;;;;5075803;28;20490;-65
2023/07/09 06:06:57;;;;;;;9.30;8.30;;;;;;;;;;5072373;28;20822;-66
2023/07/09 06:09:23;;;;;;;8.07;7.27;;;;;;;;;;5072501;28;20492;-65
2023/07/09 06:11:50;;;;;;;7.80;7.00;;;;;;;;;;5072047;28;20449;-65
2023/07/09 06:14:18;;;;;;;7.23;6.47;;;;;;;;;;5069914;28;20465;-68
2023/07/09 06:16:45;;;;;;;6.90;6.20;;;;;;;;;;5078905;28;20503;-67
2023/07/09 06:19:11;;;;;;;7.10;6.40;;;;;;;;;;5074470;28;20479;-66
2023/07/09 06:21:37;;;;;;;8.17;6.30;;;;;;;;;;5075131;28;20472;-67
2023/07/09 06:24:04;;;;;;;7.30;6.60;;;;;;;;;;5070757;28;20473;-66
2023/07/09 06:26:31;;;;;;;6.60;5.93;;;;;;;;;;5075786;28;20472;-65
2023/07/09 06:28:57;;;;;;;8.13;6.37;;;;;;;;;;5077427;28;20475;-64
2023/07/09 06:31:25;;;;;;;6.83;6.00;;;;;;;;;;5076095;28;20452;-66
2023/07/09 06:33:51;;;;;;;7.70;6.93;;;;;;;;;;5078312;28;20451;-66
2023/07/09 06:36:18;;;;;;;6.83;6.20;;;;;;;;;;5078424;28;20472;-66
2023/07/09 06:38:45;;;;;;;7.60;6.77;;;;;;;;;;5079485;28;20475;-66
2023/07/09 06:41:11;;;;;;;8.73;5.57;;;;;;;;;;5079532;28;20463;-66
2023/07/09 06:43:38;;;;;;;7.73;6.00;;;;;;;;;;5078439;28;20475;-66
2023/07/09 06:46:05;;;;;;;9.63;6.83;;;;;;;;;;5078586;28;20451;-67
2023/07/09 06:48:33;;;;;;;8.30;6.10;;;;;;;;;;5078445;28;20486;-66
2023/07/09 06:51:00;;;;;;;9.97;6.53;;;;;;;;;;5077294;28;20455;-66
2023/07/09 06:53:28;;;;;;;7.47;6.83;;;;;;;;;;5072789;28;20519;-66
2023/07/09 06:55:55;;;;;;;7.53;6.20;;;;;;;;;;5077500;28;20484;-67
2023/07/09 06:58:21;;;;;;;6.57;5.90;;;;;;;;;;5074624;28;20448;-67
2023/07/09 07:00:49;;;;;;;7.20;6.50;;;;;;;;;;5079000;28;20479;-65
2023/07/09 07:03:15;;;;;;;8.97;5.87;;;;;;;;;;5068430;28;20563;-65
2023/07/09 07:05:45;;;;;;;6.67;6.07;;;;;;;;;;5073044;28;20490;-66
2023/07/09 07:08:13;;;;;;;8.23;6.37;;;;;;;;;;5078742;28;20444;-66
2023/07/09 07:10:40;;;;;;;6.30;5.80;;;;;;;;;;5064572;28;20977;-66
2023/07/09 07:13:06;;;;;;;8.47;6.10;;;;;;;;;;5067002;28;21723;-65
2023/07/09 07:15:33;;;;;;;7.17;6.40;;;;;;;;;;5076273;28;20487;-66
2023/07/09 07:17:59;;;;;;;6.80;6.00;;;;;;;;;;5075625;28;20484;-66
2023/07/09 07:20:25;;;;;;;6.57;5.83;;;;;;;;;;5073483;28;20510;-65
2023/07/09 07:22:53;;;;;;;6.53;5.90;;;;;;;;;;5069776;28;20527;-66
2023/07/09 07:25:19;;;;;;;7.20;6.50;;;;;;;;;;5077360;28;20547;-65
2023/07/09 07:27:46;;;;;;;8.27;6.40;;;;;;;;;;5070568;28;20807;-67
2023/07/09 07:30:13;;;;;;;7.53;5.83;;;;;;;;;;5077078;28;20468;-66
2023/07/09 07:32:43;;;;;;;7.33;6.63;;;;;;;;;;5072961;28;20511;-66
2023/07/09 07:35:09;;;;;;;6.57;5.97;;;;;;;;;;5072057;28;20491;-66
2023/07/09 07:37:36;;;;;;;6.30;5.70;;;;;;;;;;5066895;28;20490;-65
2023/07/09 07:40:04;;;;;;;6.17;5.57;;;;;;;;;;5073692;28;20532;-63
2023/07/09 07:42:31;;;;;;;7.70;6.30;;;;;;;;;;5068622;28;20562;-64
2023/07/09 07:44:57;;;;;;;6.93;6.23;;;;;;;;;;5070282;28;20523;-63
2023/07/09 07:47:23;;;;;;;8.70;6.80;;;;;;;;;;5074105;28;20511;-64
2023/07/09 07:49:50;;;;;;;8.30;6.00;;;;;;;;;;5077528;28;20479;-64
2023/07/09 07:52:16;;;;;;;7.10;6.40;;;;;;;;;;5078029;28;20531;-66
2023/07/09 07:54:43;;;;;;;5.77;5.27;;;;;;;;;;5076703;28;20444;-65
2023/07/09 07:57:11;;;;;;;6.43;5.57;;;;;;;;;;5078008;28;20480;-65
2023/07/09 07:59:37;;;;;;;6.50;5.67;;;;;;;;;;5076885;28;20899;-65
2023/07/09 08:02:05;;;;;;;6.70;6.10;;;;;;;;;;5070475;28;20460;-64
2023/07/09 08:04:31;;;;;;;7.17;6.47;;;;;;;;;;5065514;28;20691;-64
2023/07/09 08:06:58;;;;;;;8.53;6.00;;;;;;;;;;5073973;28;20487;-64
2023/07/09 08:09:24;;;;;;;6.40;5.80;;;;;;;;;;5077383;28;20495;-65
2023/07/09 08:11:51;;;;;;;6.43;5.70;;;;;;;;;;5075305;28;20451;-67
2023/07/09 08:14:19;;;;;;;6.67;6.07;;;;;;;;;;5074561;28;20463;-66
2023/07/09 08:16:45;;;;;;;8.07;5.93;;;;;;;;;;5065952;28;20468;-66
2023/07/09 08:19:12;;;;;;;5.97;5.47;;;;;;;;;;5066419;28;20539;-65
2023/07/09 08:21:38;;;;;;;6.80;6.20;;;;;;;;;;5073186;28;20952;-66
2023/07/09 08:24:05;;;;;;;7.23;6.53;;;;;;;;;;5072566;28;20483;-66
2023/07/09 08:26:32;;;;;;;7.70;6.40;;;;;;;;;;5073740;28;20444;-66
2023/07/09 08:28:58;;;;;;;6.70;6.00;;;;;;;;;;5068801;28;20488;-67
2023/07/09 08:31:26;;;;;;;6.57;5.97;;;;;;;;;;5075349;28;20476;-66
2023/07/09 08:33:53;;;;;;;7.90;5.83;;;;;;;;;;5074602;28;20527;-66
2023/07/09 08:36:19;;;;;;;6.00;5.50;;;;;;;;;;5073758;28;20543;-66
2023/07/09 08:38:45;;;;;;;6.33;5.70;;;;;;;;;;5063871;28;20496;-66
2023/07/09 08:41:19;;;;;;;6.50;5.90;;;;;;;;;;5062949;28;20464;-65
2023/07/09 08:43:50;;;;;;;6.33;5.73;;;;;;;;;;5062653;28;20547;-66
2023/07/09 08:46:20;;;;;;;5.67;5.17;;;;;;;;;;5073592;28;20455;-66
2023/07/09 08:48:49;;;;;;;6.83;6.13;;;;;;;;;;5084609;28;20485;-66
2023/07/09 08:51:18;;;;;;;7.43;6.30;;;;;;;;;;5065920;28;20468;-65
2023/07/09 08:53:51;;;;;;;6.70;5.73;;;;;;;;;;5071696;28;20468;-66
2023/07/09 08:56:18;;;;;;;6.60;6.07;;;;;;;;;;5066816;28;20506;-67
2023/07/09 08:58:46;;;;;;;5.97;5.37;;;;;;;;;;5070815;28;20571;-66
2023/07/09 09:01:15;;;;;;;6.13;5.50;;;;;;;;;;5066805;28;20542;-66
2023/07/09 09:03:44;;;;;;;6.67;5.50;;;;;;;;;;5071291;28;20472;-66
2023/07/09 09:06:14;;;;;;;6.20;5.43;;;;;;;;;;5073562;28;20614;-66
2023/07/09 09:08:41;;;;;;;5.77;5.27;;;;;;;;;;5075955;28;20466;-66
2023/07/09 09:11:15;;;;;;;6.87;5.43;;;;;;;;;;5071878;28;20495;-66
2023/07/09 09:13:41;;;;;;;5.43;4.80;;;;;;;;;;5075868;28;20459;-66
2023/07/09 09:16:19;;;;;;;7.00;5.17;;;;;;;;;;5076796;28;20504;-66
2023/07/09 09:18:47;;;;;;;9.13;5.70;;;;;;;;;;5072451;28;20888;-65
2023/07/09 09:21:16;;;;;;;5.70;5.30;;;;;;;;;;5075899;28;20451;-66
2023/07/09 09:23:49;;;;;;;6.13;5.63;;;;;;;;;;5059329;28;20484;-66
2023/07/09 09:26:18;;;;;;;8.20;5.57;;;;;;;;;;5062050;28;20531;-66
2023/07/09 09:28:45;;;;;;;7.90;5.87;;;;;;;;;;5072021;28;20460;-65
2023/07/09 09:31:11;;;;;;;7.80;6.20;;;;;;;;;;5073711;28;20475;-65
2023/07/09 09:33:41;;;;;;;8.17;5.47;;;;;;;;;;5074427;28;20552;-66
2023/07/09 09:36:15;;;;;;;6.43;5.30;;;;;;;;;;5074926;28;20486;-66
2023/07/09 09:38:45;;;;;;;8.17;5.70;;;;;;;;;;5075507;28;20482;-66
2023/07/09 09:41:15;;;;;;;6.43;5.83;;;;;;;;;;5071733;28;20468;-66
2023/07/09 09:43:43;;;;;;;6.50;5.63;;;;;;;;;;5059783;28;20524;-66
2023/07/09 09:46:11;;;;;;;6.77;6.17;;;;;;;;;;5067728;28;20443;-66
2023/07/09 09:48:38;;;;;;;6.20;5.60;;;;;;;;;;5077139;28;20455;-66
2023/07/09 09:51:05;;;;;;;6.60;5.97;;;;;;;;;;5077275;28;20554;-66
2023/07/09 09:53:36;;;;;;;5.90;5.30;;;;;;;;;;5073451;28;20531;-65
2023/07/09 09:56:06;;;;;;;7.00;6.00;;;;;;;;;;5081446;28;20474;-65
2023/07/09 09:58:33;;;;;;;6.40;5.70;;;;;;;;;;5076603;28;20902;-66
2023/07/09 10:01:00;;;;;;;8.40;6.10;;;;;;;;;;5075022;28;20475;-65
2023/07/09 10:03:33;;;;;;;7.37;6.03;;;;;;;;;;5077070;28;21031;-65
2023/07/09 10:06:01;;;;;;;7.07;6.00;;;;;;;;;;5073172;28;20476;-66
2023/07/09 10:08:31;;;;;;;6.57;6.00;;;;;;;;;;5079738;28;20999;-66
2023/07/09 10:11:05;;;;;;;6.70;5.73;;;;;;;;;;5082654;28;20509;-66
2023/07/09 10:13:34;;;;;;;6.33;5.73;;;;;;;;;;5076703;28;20515;-66
2023/07/09 10:16:04;;;;;;;6.20;5.60;;;;;;;;;;5076799;28;20543;-66
2023/07/09 10:18:35;;;;;;;6.20;5.27;;;;;;;;;;5080259;28;20518;-65
2023/07/09 10:21:06;;;;;;;6.00;5.40;;;;;;;;;;5077765;28;20474;-65
2023/07/09 10:23:35;;;;;;;8.10;6.20;;;;;;;;;;5084938;28;20530;-66
2023/07/09 10:26:04;;;;;;;12.10;6.37;;;;;;;;;;5080335;28;20495;-65
2023/07/09 10:28:45;;;;;;;8.47;6.63;;;;;;;;;;5072830;28;20547;-65
2023/07/09 10:31:15;;;;;;;11.30;6.40;;;;;;;;;;5080006;28;20463;-65
2023/07/09 10:33:49;;;;;;;7.30;6.10;;;;;;;;;;5078452;28;20464;-65
2023/07/09 10:36:22;;;;;;;7.17;5.80;;;;;;;;;;5074578;28;20723;-65
2023/07/09 10:38:52;;;;;;;9.50;6.20;;;;;;;;;;5074292;28;20444;-65
2023/07/09 10:41:19;;;;;;;8.63;6.17;;;;;;;;;;5082117;28;20455;-64
2023/07/09 10:43:49;;;;;;;8.30;6.23;;;;;;;;;;5080859;28;20513;-65
2023/07/09 10:46:17;;;;;;;7.63;6.40;;;;;;;;;;5082210;28;20462;-65
2023/07/09 10:48:44;;;;;;;7.23;5.87;;;;;;;;;;5072496;28;20522;-65
2023/07/09 10:51:16;;;;;;;6.93;6.33;;;;;;;;;;5074915;28;20495;-65
2023/07/09 10:53:44;;;;;;;8.43;6.60;;;;;;;;;;5076867;28;21005;-66
2023/07/09 10:56:13;;;;;;;7.13;5.97;;;;;;;;;;5079610;28;20509;-65
2023/07/09 10:58:42;;;;;;;7.13;6.00;;;;;;;;;;5078931;28;20511;-65
2023/07/09 11:01:12;;;;;;;10.10;6.03;;;;;;;;;;5074959;28;20448;-65
2023/07/09 11:03:42;;;;;;;8.10;6.00;;;;;;;;;;5075817;28;20488;-66
2023/07/09 11:06:15;;;;;;;8.20;6.20;;;;;;;;;;5078599;28;21046;-66
2023/07/09 11:08:42;;;;;;;8.80;6.07;;;;;;;;;;5066197;28;20512;-65
2023/07/09 11:11:10;;;;;;;8.77;6.50;;;;;;;;;;5077847;28;20449;-65
2023/07/09 11:13:38;;;;;;;6.40;5.80;;;;;;;;;;5078047;28;20491;-65
2023/07/09 11:16:06;;;;;;;8.43;6.00;;;;;;;;;;5073895;28;20669;-65
2023/07/09 11:18:35;;;;;;;6.83;5.73;;;;;;;;;;5071444;28;20477;-65
2023/07/09 11:21:02;;;;;;;6.37;5.77;;;;;;;;;;5072381;28;21023;-65
2023/07/09 11:23:37;;;;;;;10.10;7.67;;;;;;;;;;5071799;28;20975;-66
2023/07/09 11:26:12;;;;;;;6.70;5.60;;;;;;;;;;5072788;28;20900;-65
2023/07/09 11:28:39;;;;;;;9.70;6.70;;;;;;;;;;5074296;28;20456;-65
2023/07/09 11:31:07;;;;;;;6.70;6.07;;;;;;;;;;5069389;28;21335;-65
2023/07/09 11:33:34;;;;;;;7.33;5.47;;;;;;;;;;5075745;28;20495;-65
2023/07/09 11:36:08;;;;;;;6.00;5.40;;;;;;;;;;5075229;28;20487;-67
2023/07/09 11:38:39;;;;;;;7.83;6.00;;;;;;;;;;5076279;28;20487;-67
2023/07/09 11:41:21;;;;;;;6.97;6.27;;;;;;;;;;5076476;28;20518;-66
2023/07/09 11:43:48;;;;;;;6.43;5.83;;;;;;;;;;5069766;28;20524;-66
2023/07/09 11:46:18;;;;;;;8.60;5.70;;;;;;;;;;5073556;28;20550;-67
2023/07/09 11:48:46;;;;;;;7.43;5.80;;;;;;;;;;5075824;28;20539;-66
2023/07/09 11:51:16;;;;;;;8.10;5.70;;;;;;;;;;5078318;28;20444;-66
2023/07/09 11:53:44;;;;;;;5.83;5.23;;;;;;;;;;5073215;28;20460;-66
2023/07/09 11:56:10;;;;;;;9.23;5.87;;;;;;;;;;5070180;28;20479;-66
2023/07/09 11:58:37;;;;;;;6.47;5.87;;;;;;;;;;5075046;28;20534;-66
2023/07/09 12:01:04;;;;;;;6.43;5.27;;;;;;;;;;5069872;28;20588;-67
2023/07/09 12:03:33;;;;;;;6.53;5.70;;;;;;;;;;5076653;28;20455;-67
2023/07/09 12:06:04;;;;;;;7.43;5.40;;;;;;;;;;5074705;28;20491;-66
2023/07/09 12:08:34;;;;;;;9.97;5.50;;;;;;;;;;5075647;28;20440;-67
2023/07/09 12:11:01;;;;;;;9.13;5.23;;;;;;;;;;5066162;28;20556;-67
2023/07/09 12:13:27;;;;;;;6.10;5.50;;;;;;;;;;5067393;28;20485;-66
2023/07/09 12:15:54;;;;;;;12.17;6.40;;;;;;;;;;5068431;28;20460;-66
2023/07/09 12:18:20;;;;;;;8.17;5.40;;;;;;;;;;5069108;28;20504;-66
2023/07/09 12:20:48;;;;;;;7.80;6.03;;;;;;;;;;5070842;28;20601;-66
2023/07/09 12:23:21;;;;;;;8.63;6.00;;;;;;;;;;5075060;28;20476;-66
2023/07/09 12:25:48;;;;;;;6.40;5.33;;;;;;;;;;5071454;28;20488;-66
2023/07/09 12:28:15;;;;;;;6.40;5.27;;;;;;;;;;5076127;28;20687;-66
2023/07/09 12:30:45;;;;;;;10.90;6.20;;;;;;;;;;5073886;28;20452;-66
2023/07/09 12:33:16;;;;;;;9.67;5.80;;;;;;;;;;5070649;28;20524;-67
2023/07/09 12:35:43;;;;;;;7.90;5.90;;;;;;;;;;5071151;28;20914;-67
2023/07/09 12:38:16;;;;;;;8.20;6.20;;;;;;;;;;5070472;28;20515;-67
2023/07/09 12:40:44;;;;;;;6.53;5.47;;;;;;;;;;5077471;28;20471;-66
2023/07/09 12:43:12;;;;;;;9.13;6.00;;;;;;;;;;5073862;28;20473;-67
2023/07/09 12:45:38;;;;;;;6.70;5.23;;;;;;;;;;5076069;28;20551;-66
2023/07/09 12:48:05;;;;;;;6.53;5.47;;;;;;;;;;5072610;28;20448;-66
2023/07/09 12:50:32;;;;;;;8.67;4.60;;;;;;;;;;5077373;28;21025;-66
2023/07/09 12:53:02;;;;;;;7.33;5.40;;;;;;;;;;5077334;28;20543;-66
2023/07/09 12:55:31;;;;;;;7.20;5.13;;;;;;;;;;5069155;28;20463;-66
2023/07/09 12:57:59;;;;;;;7.20;6.20;;;;;;;;;;5074593;28;20529;-66
2023/07/09 13:00:29;;;;;;;10.00;5.77;;;;;;;;;;5076766;28;20459;-66
2023/07/09 13:02:56;;;;;;;6.53;5.27;;;;;;;;;;5076536;28;20495;-66
2023/07/09 13:05:23;;;;;;;8.30;5.20;;;;;;;;;;5070561;28;20484;-66
2023/07/09 13:07:51;;;;;;;6.87;5.27;;;;;;;;;;5070021;28;20457;-66
2023/07/09 13:10:18;;;;;;;11.23;5.63;;;;;;;;;;5067278;28;20486;-66
2023/07/09 13:12:46;;;;;;;9.50;4.60;;;;;;;;;;5069265;28;20547;-66
2023/07/09 13:15:27;;;;;;;6.70;5.77;;;;;;;;;;5067375;28;20475;-66
2023/07/09 13:18:04;;;;;;;6.20;4.80;;;;;;;;;;5073480;28;20583;-66
2023/07/09 13:20:31;;;;;;;6.03;4.60;;;;;;;;;;5072772;28;20522;-66
2023/07/09 13:22:58;;;;;;;6.03;4.60;;;;;;;;;;5071744;28;20448;-66
2023/07/09 13:25:25;;;;;;;6.73;4.83;;;;;;;;;;5060356;28;20500;-66
2023/07/09 13:27:51;;;;;;;6.00;4.77;;;;;;;;;;5079660;28;20552;-66
2023/07/09 13:30:18;;;;;;;7.50;4.53;;;;;;;;;;5074815;28;20599;-67
2023/07/09 13:32:49;;;;;;;6.70;4.60;;;;;;;;;;5069843;28;20474;-65
2023/07/09 13:35:17;;;;;;;5.23;4.10;;;;;;;;;;5070124;28;20520;-65
2023/07/09 13:37:43;;;;;;;6.97;4.90;;;;;;;;;;5066453;28;20513;-66
2023/07/09 13:40:11;;;;;;;7.67;5.10;;;;;;;;;;5074757;28;20751;-66
2023/07/09 13:42:38;;;;;;;5.23;4.50;;;;;;;;;;5073964;28;20563;-66
2023/07/09 13:45:05;;;;;;;6.47;4.73;;;;;;;;;;5072460;28;20483;-65
2023/07/09 13:47:33;;;;;;;7.30;4.97;;;;;;;;;;5072061;28;20987;-66
2023/07/09 13:50:00;;;;;;;11.00;4.30;;;;;;;;;;5072601;28;20532;-66
2023/07/09 13:52:28;;;;;;;4.40;3.60;;;;;;;;;;5060810;28;20489;-66
2023/07/09 13:54:54;;;;;;;4.90;3.93;;;;;;;;;;5072466;28;20459;-66
2023/07/09 13:57:22;;;;;;;8.13;4.23;;;;;;;;;;5071875;28;20805;-66
2023/07/09 13:59:49;;;;;;;4.43;3.83;;;;;;;;;;5062317;28;21008;-66
2023/07/09 14:02:20;;;;;;;9.50;4.67;;;;;;;;;;5072009;28;20510;-66
2023/07/09 14:04:46;;;;;;;7.40;4.87;;;;;;;;;;5068238;28;20503;-67
2023/07/09 14:07:18;;;;;;;5.80;4.20;;;;;;;;;;5075043;28;20514;-66
2023/07/09 14:09:46;;;;;;;5.23;4.03;;;;;;;;;;5072683;28;20497;-66
2023/07/09 14:12:12;;;;;;;6.57;4.83;;;;;;;;;;5075823;28;20499;-66
2023/07/09 14:14:38;;;;;;;10.90;5.13;;;;;;;;;;5073910;28;20528;-66
2023/07/09 14:17:05;;;;;;;6.37;5.70;;;;;;;;;;5059709;28;20459;-67
2023/07/09 14:19:31;;;;;;;8.03;4.97;;;;;;;;;;5065173;28;20832;-67
2023/07/09 14:21:58;;;;;;;8.27;5.17;;;;;;;;;;5075835;28;20450;-68
2023/07/09 14:24:26;;;;;;;6.50;4.70;;;;;;;;;;5067560;28;20464;-67
2023/07/09 14:26:54;;;;;;;10.37;5.03;;;;;;;;;;5064294;28;20475;-66
2023/07/09 14:29:21;;;;;;;7.20;5.07;;;;;;;;;;5068756;28;20498;-67
2023/07/09 14:31:47;;;;;;;7.30;4.90;;;;;;;;;;5072516;28;20534;-67
2023/07/09 14:34:19;;;;;;;4.93;4.43;;;;;;;;;;5073560;28;20464;-67
2023/07/09 14:36:45;;;;;;;8.53;5.20;;;;;;;;;;5074478;28;20459;-67
2023/07/09 14:39:12;;;;;;;8.30;5.73;;;;;;;;;;5068733;28;20943;-67
2023/07/09 14:41:38;;;;;;;6.97;5.27;;;;;;;;;;5056137;28;20490;-69
2023/07/09 14:44:16;;;;;;;7.37;5.30;;;;;;;;;;5069337;28;20481;-69